Saint Xavier, Montana
Current Conditions -  °F | °C
As of 4:53 PM on Saturday 25 Oct 2014 (Local Time) from KBIL Reporting Station
Scattered Clouds Scattered Clouds  
Wind Chill: 63°   Ceiling: Unl
Heat Index: 63°   Visibility: 10mi
Dew Point: 36°   Wind: 9mph
Humidity: 37%   Direction: 40°NE
Pressure: 29.78"   Gusts: NA
Location:  45.46°N, 107.72°W
Report Text: KBIL 252253Z 04008KT 10SM FEW200 SCT280 17/02 A2978 RMK AO2 SLP078 T01720022
Loading
Personal Weather Stations






























Interactive Weather Map
Tropical Storm Tracking
New forecast layout! Learn more

10-Day Weather Forecast

Advertisements
Track Severe Weather on mobile